Time;durP1;ratioP1;P1;durP2;ratioP2;P2;SDS_P1;SDS_P2;PMS_P1;PMS_P2;Temp;Humidity;BMP_temperature;BMP_pressure;BME280_temperature;BME280_humidity;BME280_pressure;Samples;Min_cycle;Max_cycle;Signal;HPM_P1;HPM_P2
2021/11/21 00:00:34;;;;;;;5.53;5.03;;;;;;;;;;7333239;19;154255;-13
2021/11/21 00:03:07;;;;;;;5.47;5.07;;;;;;;;;;7333398;19;153545;-15
2021/11/21 00:05:40;;;;;;;5.13;4.72;;;;;;;;;;7330376;19;161872;-12
2021/11/21 00:08:15;;;;;;;5.57;5.18;;;;;;;;;;7331029;19;162566;-13
2021/11/21 00:10:49;;;;;;;5.90;5.40;;;;;;;;;;7332396;19;154173;-12
2021/11/21 00:13:21;;;;;;;5.00;4.60;;;;;;;;;;7330860;19;153681;-13
2021/11/21 00:15:52;;;;;;;5.10;4.70;;;;;;;;;;7331779;19;162318;-16
2021/11/21 00:18:24;;;;;;;5.28;4.88;;;;;;;;;;7331860;19;162518;-14
2021/11/21 00:20:56;;;;;;;5.70;5.20;;;;;;;;;;7331318;19;154150;-19
2021/11/21 00:23:28;;;;;;;4.90;4.50;;;;;;;;;;7332583;19;153789;-13
2021/11/21 00:26:02;;;;;;;5.13;4.72;;;;;;;;;;7330813;19;162121;-14
2021/11/21 00:28:34;;;;;;;4.85;4.55;;;;;;;;;;7330693;19;162600;-13
2021/11/21 00:31:05;;;;;;;5.40;5.00;;;;;;;;;;7331010;19;154037;-14
2021/11/21 00:33:37;;;;;;;5.55;5.05;;;;;;;;;;7331063;19;153696;-13
2021/11/21 00:36:09;;;;;;;4.87;4.47;;;;;;;;;;7330693;19;162117;-12
2021/11/21 00:38:41;;;;;;;5.03;4.63;;;;;;;;;;7330762;19;162590;-12
2021/11/21 00:41:15;;;;;;;5.18;4.78;;;;;;;;;;7331966;19;153966;-13
2021/11/21 00:43:47;;;;;;;4.63;4.22;;;;;;;;;;7330678;19;153680;-12
2021/11/21 00:46:19;;;;;;;4.83;4.43;;;;;;;;;;7330624;19;162240;-15
2021/11/21 00:48:51;;;;;;;5.45;5.00;;;;;;;;;;7331397;19;162337;-15
2021/11/21 00:51:23;;;;;;;4.78;4.45;;;;;;;;;;7329963;19;154081;-12
2021/11/21 00:54:05;;;;;;;5.30;4.90;;;;;;;;;;7331770;19;153539;-12
2021/11/21 00:56:39;;;;;;;4.55;4.15;;;;;;;;;;7331190;19;161816;-12
2021/11/21 00:59:11;;;;;;;5.47;5.00;;;;;;;;;;7330493;19;162435;-12
2021/11/21 01:01:42;;;;;;;4.80;4.40;;;;;;;;;;7327385;19;154189;-12
2021/11/21 01:04:13;;;;;;;4.53;4.22;;;;;;;;;;7330789;19;153695;-13
2021/11/21 01:06:45;;;;;;;4.63;4.30;;;;;;;;;;7329270;19;161924;-12
2021/11/21 01:09:18;;;;;;;4.45;4.07;;;;;;;;;;7330292;19;162426;-12
2021/11/21 01:11:52;;;;;;;4.47;4.18;;;;;;;;;;7330503;19;154038;-12
2021/11/21 01:14:23;;;;;;;4.57;4.28;;;;;;;;;;7330604;19;153567;-12
2021/11/21 01:16:54;;;;;;;4.60;4.20;;;;;;;;;;7330132;19;161887;-13
2021/11/21 01:19:26;;;;;;;5.05;4.65;;;;;;;;;;7329820;19;162466;-13
2021/11/21 01:21:57;;;;;;;4.32;3.92;;;;;;;;;;7330020;19;153969;-12
2021/11/21 01:24:29;;;;;;;4.10;3.80;;;;;;;;;;7329856;19;153743;-13
2021/11/21 01:27:03;;;;;;;3.90;3.60;;;;;;;;;;7328074;19;161906;-13
2021/11/21 01:29:34;;;;;;;4.07;3.78;;;;;;;;;;7329005;19;162403;-13
2021/11/21 01:32:06;;;;;;;4.13;3.83;;;;;;;;;;7329410;19;154015;-13
2021/11/21 01:34:38;;;;;;;4.07;3.80;;;;;;;;;;7329593;19;153753;-13
2021/11/21 01:37:10;;;;;;;4.37;4.07;;;;;;;;;;7327917;19;161858;-12
2021/11/21 01:39:42;;;;;;;4.60;4.22;;;;;;;;;;7328947;19;162717;-13
2021/11/21 01:42:16;;;;;;;4.20;3.90;;;;;;;;;;7329487;19;154046;-14
2021/11/21 01:44:48;;;;;;;3.60;3.40;;;;;;;;;;7329451;19;153688;-13
2021/11/21 01:47:19;;;;;;;4.15;3.88;;;;;;;;;;7326343;19;162189;-13
2021/11/21 01:49:50;;;;;;;4.20;3.90;;;;;;;;;;7327582;19;162613;-13
2021/11/21 01:52:22;;;;;;;3.67;3.40;;;;;;;;;;7326003;19;154328;-12
2021/11/21 01:54:54;;;;;;;3.53;3.30;;;;;;;;;;7328893;19;153663;-14
2021/11/21 01:57:28;;;;;;;3.88;3.58;;;;;;;;;;7328567;19;162701;-13
2021/11/21 02:00:02;;;;;;;3.42;3.22;;;;;;;;;;7327800;19;162669;-17
2021/11/21 02:02:45;;;;;;;3.58;3.38;;;;;;;;;;7329368;19;153977;-13
2021/11/21 02:05:17;;;;;;;4.05;3.75;;;;;;;;;;7328354;19;153642;-13
2021/11/21 02:07:48;;;;;;;4.03;3.72;;;;;;;;;;7327531;19;161813;-13
2021/11/21 02:10:23;;;;;;;3.83;3.53;;;;;;;;;;7327945;19;162625;-15
2021/11/21 02:12:57;;;;;;;3.75;3.55;;;;;;;;;;7329969;19;154144;-14
2021/11/21 02:15:30;;;;;;;4.07;3.78;;;;;;;;;;7334884;19;153822;-13
2021/11/21 02:18:02;;;;;;;;;;;;;;;;;;7336133;19;162133;-14
2021/11/21 02:20:50;;;;;;;3.72;3.53;;;;;;;;;;7335335;19;162505;-12
2021/11/21 02:23:23;;;;;;;3.83;3.58;;;;;;;;;;7335220;19;154052;-13
2021/11/21 02:25:55;;;;;;;3.88;3.58;;;;;;;;;;7335283;19;153516;-13
2021/11/21 02:28:26;;;;;;;3.30;3.10;;;;;;;;;;7333199;19;161764;-13
2021/11/21 02:30:58;;;;;;;3.38;3.17;;;;;;;;;;7334789;19;162359;-13
2021/11/21 02:33:29;;;;;;;3.67;3.38;;;;;;;;;;7334088;19;154014;-13
2021/11/21 02:36:05;;;;;;;3.20;3.00;;;;;;;;;;7335334;19;153473;-12
2021/11/21 02:38:37;;;;;;;3.30;3.10;;;;;;;;;;7334867;19;161795;-13
2021/11/21 02:41:11;;;;;;;3.33;3.13;;;;;;;;;;7334892;19;162578;-12
2021/11/21 02:43:44;;;;;;;3.88;3.58;;;;;;;;;;7335021;19;153973;-14
2021/11/21 02:46:17;;;;;;;3.45;3.20;;;;;;;;;;7335090;19;153365;-12
2021/11/21 02:48:48;;;;;;;3.05;2.85;;;;;;;;;;7331405;19;161860;-13
2021/11/21 02:51:22;;;;;;;3.33;3.13;;;;;;;;;;7333336;19;162391;-12
2021/11/21 02:53:54;;;;;;;3.15;2.95;;;;;;;;;;7334695;19;154016;-12
2021/11/21 02:56:27;;;;;;;3.08;2.88;;;;;;;;;;7333508;19;153565;-13
2021/11/21 02:58:58;;;;;;;3.20;3.00;;;;;;;;;;7334392;19;162018;-13
2021/11/21 03:01:29;;;;;;;3.40;3.20;;;;;;;;;;7334103;19;162339;-12
2021/11/21 03:04:01;;;;;;;3.20;3.00;;;;;;;;;;7334459;19;154306;-12
2021/11/21 03:06:37;;;;;;;3.38;3.17;;;;;;;;;;7334233;19;153612;-14
2021/11/21 03:09:09;;;;;;;3.08;2.88;;;;;;;;;;7331802;19;161787;-13
2021/11/21 03:11:40;;;;;;;3.17;2.97;;;;;;;;;;7334031;19;162871;-13
2021/11/21 03:14:14;;;;;;;3.08;2.88;;;;;;;;;;7333395;19;154434;-12
2021/11/21 03:16:48;;;;;;;3.50;3.30;;;;;;;;;;7334573;19;153491;-13
2021/11/21 03:19:20;;;;;;;3.38;3.17;;;;;;;;;;7332936;19;162094;-11
2021/11/21 03:21:54;;;;;;;3.10;2.90;;;;;;;;;;7333283;19;162414;-12
2021/11/21 03:24:25;;;;;;;3.15;2.95;;;;;;;;;;7332593;19;154444;-12
2021/11/21 03:26:57;;;;;;;3.17;2.97;;;;;;;;;;7333203;19;153501;-15
2021/11/21 03:29:28;;;;;;;3.25;3.05;;;;;;;;;;7330032;19;161939;-13
2021/11/21 03:31:59;;;;;;;3.30;3.10;;;;;;;;;;7333163;19;162498;-13
2021/11/21 03:34:31;;;;;;;3.15;2.95;;;;;;;;;;7333316;19;153960;-13
2021/11/21 03:37:05;;;;;;;2.92;2.83;;;;;;;;;;7333400;19;153821;-13
2021/11/21 03:39:37;;;;;;;2.72;2.63;;;;;;;;;;7333063;19;161785;-12
2021/11/21 03:42:09;;;;;;;2.90;2.70;;;;;;;;;;7333087;19;162341;-13
2021/11/21 03:44:40;;;;;;;3.05;2.85;;;;;;;;;;7333155;19;153998;-12
2021/11/21 03:47:12;;;;;;;2.47;2.38;;;;;;;;;;7332939;19;153578;-14
2021/11/21 03:49:43;;;;;;;3.15;2.95;;;;;;;;;;7330379;19;162143;-13
2021/11/21 03:52:17;;;;;;;2.92;2.72;;;;;;;;;;7330350;19;162677;-14
2021/11/21 03:54:49;;;;;;;3.00;2.80;;;;;;;;;;7332961;19;153997;-13
2021/11/21 03:57:20;;;;;;;3.10;2.90;;;;;;;;;;7332813;19;153582;-13
2021/11/21 03:59:51;;;;;;;2.80;2.60;;;;;;;;;;7331360;19;161942;-13
2021/11/21 04:02:22;;;;;;;2.58;2.47;;;;;;;;;;7332235;19;162277;-14
2021/11/21 04:04:55;;;;;;;2.78;2.58;;;;;;;;;;7332425;19;154058;-12
2021/11/21 04:07:31;;;;;;;2.58;2.47;;;;;;;;;;7332545;19;153513;-13
2021/11/21 04:10:03;;;;;;;2.85;2.65;;;;;;;;;;7329755;19;161917;-13
2021/11/21 04:12:34;;;;;;;2.63;2.53;;;;;;;;;;7331998;19;162608;-12
2021/11/21 04:15:07;;;;;;;3.00;2.80;;;;;;;;;;7332491;19;154186;-13
2021/11/21 04:17:39;;;;;;;3.00;2.80;;;;;;;;;;7332246;19;153682;-13
2021/11/21 04:20:13;;;;;;;2.40;2.30;;;;;;;;;;7331805;19;161931;-12
2021/11/21 04:22:47;;;;;;;2.33;2.22;;;;;;;;;;7331733;19;162511;-12
2021/11/21 04:25:18;;;;;;;2.53;2.40;;;;;;;;;;7332062;19;153985;-12
2021/11/21 04:27:52;;;;;;;2.60;2.50;;;;;;;;;;7331823;19;153564;-13
2021/11/21 04:30:23;;;;;;;2.40;2.30;;;;;;;;;;7327993;19;161880;-14
2021/11/21 04:32:55;;;;;;;2.35;2.22;;;;;;;;;;7331364;19;162444;-13
2021/11/21 04:35:26;;;;;;;2.72;2.53;;;;;;;;;;7331855;19;153918;-13
2021/11/21 04:38:00;;;;;;;2.40;2.30;;;;;;;;;;7330446;19;153653;-13
2021/11/21 04:40:31;;;;;;;2.28;2.17;;;;;;;;;;7331383;19;161917;-15
2021/11/21 04:43:02;;;;;;;2.53;2.42;;;;;;;;;;7331180;19;162344;-13
2021/11/21 04:45:34;;;;;;;2.45;2.35;;;;;;;;;;7331431;19;153969;-12
2021/11/21 04:48:05;;;;;;;2.13;2.03;;;;;;;;;;7331461;19;153473;-13
2021/11/21 04:50:37;;;;;;;2.40;2.30;;;;;;;;;;7328401;19;161800;-12
2021/11/21 04:53:11;;;;;;;2.28;2.17;;;;;;;;;;7329535;19;162441;-19
2021/11/21 04:55:42;;;;;;;2.47;2.38;;;;;;;;;;7330980;19;154237;-13
2021/11/21 04:58:14;;;;;;;2.30;2.20;;;;;;;;;;7331169;19;153548;-13
2021/11/21 05:00:46;;;;;;;2.53;2.35;;;;;;;;;;7330599;19;162011;-12
2021/11/21 05:03:17;;;;;;;2.50;2.40;;;;;;;;;;7330478;19;162533;-14
2021/11/21 05:05:48;;;;;;;2.15;2.05;;;;;;;;;;7330840;19;154204;-13
2021/11/21 05:08:22;;;;;;;2.28;2.17;;;;;;;;;;7330756;19;153537;-14
2021/11/21 05:10:53;;;;;;;2.20;2.10;;;;;;;;;;7326712;19;161812;-13
2021/11/21 05:13:25;;;;;;;2.20;2.10;;;;;;;;;;7330285;19;162587;-14
2021/11/21 05:15:56;;;;;;;2.08;1.98;;;;;;;;;;7330589;19;153892;-13
2021/11/21 05:18:27;;;;;;;2.10;2.00;;;;;;;;;;7330568;19;153495;-18
2021/11/21 05:20:59;;;;;;;2.28;2.17;;;;;;;;;;7330240;19;161840;-13
2021/11/21 05:23:33;;;;;;;2.30;2.20;;;;;;;;;;7330049;19;162432;-13
2021/11/21 05:26:04;;;;;;;2.10;2.00;;;;;;;;;;7330226;19;154065;-12
2021/11/21 05:28:36;;;;;;;2.10;2.00;;;;;;;;;;7330244;19;153580;-13
2021/11/21 05:31:07;;;;;;;2.10;2.00;;;;;;;;;;7327138;19;161904;-14
2021/11/21 05:33:38;;;;;;;2.10;2.00;;;;;;;;;;7329788;19;162618;-12
2021/11/21 05:36:10;;;;;;;2.20;2.10;;;;;;;;;;7328928;19;154109;-13
2021/11/21 05:38:44;;;;;;;2.20;2.10;;;;;;;;;;7329808;19;153536;-12
2021/11/21 05:41:15;;;;;;;2.15;2.05;;;;;;;;;;7329428;19;162120;-13
2021/11/21 05:43:47;;;;;;;2.20;2.10;;;;;;;;;;7329393;19;162535;-26
2021/11/21 05:46:18;;;;;;;2.22;2.13;;;;;;;;;;7329807;19;154137;-14
2021/11/21 05:48:53;;;;;;;2.15;2.05;;;;;;;;;;7328288;19;153588;-13
2021/11/21 05:51:24;;;;;;;2.08;1.98;;;;;;;;;;7326293;19;162085;-12
2021/11/21 05:53:58;;;;;;;2.20;2.10;;;;;;;;;;7329281;19;162715;-14
2021/11/21 05:56:29;;;;;;;1.90;1.80;;;;;;;;;;7329715;19;154121;-14
2021/11/21 05:59:00;;;;;;;2.08;1.98;;;;;;;;;;7329417;19;153488;-14
2021/11/21 06:01:32;;;;;;;2.08;1.98;;;;;;;;;;7329035;19;161754;-23
2021/11/21 06:04:03;;;;;;;2.00;1.90;;;;;;;;;;7328963;19;162634;-18
2021/11/21 06:06:35;;;;;;;2.00;1.90;;;;;;;;;;7329177;19;153997;-16
2021/11/21 06:09:09;;;;;;;2.20;2.10;;;;;;;;;;7329250;19;153463;-15
2021/11/21 06:11:40;;;;;;;2.08;1.98;;;;;;;;;;7324828;19;161957;-12
2021/11/21 06:14:11;;;;;;;2.00;1.90;;;;;;;;;;7328431;19;162368;-13
2021/11/21 06:16:43;;;;;;;2.03;1.92;;;;;;;;;;7327373;19;153998;-13
2021/11/21 06:19:14;;;;;;;1.90;1.80;;;;;;;;;;7328629;19;153592;-14
2021/11/21 06:21:45;;;;;;;2.10;2.00;;;;;;;;;;7328416;19;161794;-12
2021/11/21 06:24:20;;;;;;;1.90;1.80;;;;;;;;;;7328003;19;162553;-12
2021/11/21 06:26:51;;;;;;;1.77;1.67;;;;;;;;;;7328539;19;154006;-12
2021/11/21 06:29:23;;;;;;;1.98;1.88;;;;;;;;;;7328484;19;153547;-12
2021/11/21 06:31:55;;;;;;;1.93;1.83;;;;;;;;;;7325424;19;161826;-12
2021/11/21 06:34:26;;;;;;;1.50;1.50;;;;;;;;;;7327882;19;162671;-12
2021/11/21 06:36:57;;;;;;;2.00;1.90;;;;;;;;;;7328262;19;153995;-13
2021/11/21 06:39:33;;;;;;;1.92;1.83;;;;;;;;;;7327984;19;153547;-13
2021/11/21 06:42:04;;;;;;;2.08;1.98;;;;;;;;;;7327582;19;162430;-12
2021/11/21 06:44:35;;;;;;;2.05;1.95;;;;;;;;;;7327503;19;162473;-13
2021/11/21 06:47:07;;;;;;;2.03;1.92;;;;;;;;;;7326497;19;154258;-12
2021/11/21 06:49:39;;;;;;;1.55;1.55;;;;;;;;;;7327681;19;153503;-12
2021/11/21 06:52:10;;;;;;;2.00;1.90;;;;;;;;;;7324368;19;162271;-13
2021/11/21 06:54:44;;;;;;;1.90;1.80;;;;;;;;;;7325968;19;162560;-12
2021/11/21 06:57:15;;;;;;;1.77;1.67;;;;;;;;;;7327580;19;154060;-13
2021/11/21 06:59:47;;;;;;;1.73;1.63;;;;;;;;;;7327843;19;153499;-12
2021/11/21 07:02:18;;;;;;;1.90;1.80;;;;;;;;;;7334151;19;161967;-12
2021/11/21 07:04:50;;;;;;;1.90;1.80;;;;;;;;;;7333361;19;162591;-14
2021/11/21 07:07:22;;;;;;;2.00;1.90;;;;;;;;;;7334249;19;154584;-12
2021/11/21 07:09:56;;;;;;;1.40;1.40;;;;;;;;;;7334137;19;153683;-12
2021/11/21 07:12:27;;;;;;;1.65;1.55;;;;;;;;;;7331280;19;161948;-13
2021/11/21 07:15:12;;;;;;;1.50;1.50;;;;;;;;;;7333581;19;162274;-12
2021/11/21 07:17:44;;;;;;;1.70;1.60;;;;;;;;;;7334128;19;154232;-12
2021/11/21 07:20:18;;;;;;;1.77;1.67;;;;;;;;;;7334060;19;153673;-12
2021/11/21 07:22:50;;;;;;;1.75;1.65;;;;;;;;;;7333478;19;162068;-13
2021/11/21 07:25:26;;;;;;;1.40;1.40;;;;;;;;;;7333456;19;162500;-12
2021/11/21 07:27:57;;;;;;;1.88;1.77;;;;;;;;;;7333542;19;154003;-12
2021/11/21 07:30:29;;;;;;;1.75;1.70;;;;;;;;;;7336153;19;153639;-16
2021/11/21 07:33:00;;;;;;;2.10;2.00;;;;;;;;;;7336396;19;161877;-14
2021/11/21 07:35:31;;;;;;;1.50;1.50;;;;;;;;;;7335757;19;162664;-12
2021/11/21 07:38:02;;;;;;;1.65;1.55;;;;;;;;;;7336529;19;154025;-15
2021/11/21 07:40:36;;;;;;;1.58;1.58;;;;;;;;;;7336167;19;153606;-12
2021/11/21 07:43:08;;;;;;;1.65;1.55;;;;;;;;;;7336548;19;161776;-13
2021/11/21 07:45:39;;;;;;;1.90;1.80;;;;;;;;;;7336100;19;162319;-13
2021/11/21 07:48:10;;;;;;;1.92;1.83;;;;;;;;;;7336111;19;154054;-13
2021/11/21 07:50:43;;;;;;;1.55;1.55;;;;;;;;;;7334465;19;153545;-12
2021/11/21 07:53:14;;;;;;;1.70;1.60;;;;;;;;;;7333334;19;161818;-13
2021/11/21 07:55:48;;;;;;;1.60;1.50;;;;;;;;;;7335200;19;162239;-14
2021/11/21 07:58:19;;;;;;;1.80;1.70;;;;;;;;;;7335421;19;154307;-14
2021/11/21 08:00:51;;;;;;;1.52;1.50;;;;;;;;;;7334779;19;153536;-13
2021/11/21 08:03:22;;;;;;;1.98;1.88;;;;;;;;;;7335857;19;161785;-13
2021/11/21 08:05:54;;;;;;;1.63;1.52;;;;;;;;;;7335761;19;162560;-12
2021/11/21 08:08:25;;;;;;;1.60;1.60;;;;;;;;;;7336029;19;154508;-13
2021/11/21 08:10:59;;;;;;;1.38;1.38;;;;;;;;;;7334204;19;153439;-14
2021/11/21 08:13:30;;;;;;;1.50;1.48;;;;;;;;;;7335322;19;161796;-11
2021/11/21 08:16:02;;;;;;;1.58;1.48;;;;;;;;;;7334732;19;162359;-12
2021/11/21 08:18:35;;;;;;;1.85;1.75;;;;;;;;;;7332203;19;153896;-13
2021/11/21 08:21:06;;;;;;;1.13;1.13;;;;;;;;;;7331874;19;153650;-14
2021/11/21 08:23:38;;;;;;;1.45;1.35;;;;;;;;;;7331605;19;161855;-13
2021/11/21 08:26:12;;;;;;;1.60;1.60;;;;;;;;;;7330466;19;162397;-13
2021/11/21 08:28:43;;;;;;;1.50;1.50;;;;;;;;;;7330846;19;154048;-12
2021/11/21 08:31:16;;;;;;;1.73;1.63;;;;;;;;;;7331573;19;153528;-12
2021/11/21 08:33:48;;;;;;;1.55;1.52;;;;;;;;;;7332184;19;161781;-13
2021/11/21 08:36:19;;;;;;;1.50;1.45;;;;;;;;;;7333430;19;163036;-12
2021/11/21 08:38:50;;;;;;;1.55;1.55;;;;;;;;;;7333340;19;154116;-12
2021/11/21 08:41:25;;;;;;;1.40;1.35;;;;;;;;;;7330620;19;153569;-13
2021/11/21 08:43:57;;;;;;;1.25;1.25;;;;;;;;;;7330643;19;161827;-14
2021/11/21 08:46:28;;;;;;;1.40;1.40;;;;;;;;;;7330666;19;163156;-13
2021/11/21 08:48:59;;;;;;;1.20;1.20;;;;;;;;;;7331176;19;154131;-13
2021/11/21 08:51:31;;;;;;;1.40;1.40;;;;;;;;;;7328860;19;153497;-16
2021/11/21 08:54:02;;;;;;;1.70;1.60;;;;;;;;;;7330587;19;161927;-13
2021/11/21 08:56:36;;;;;;;1.45;1.40;;;;;;;;;;7330464;19;162327;-14
2021/11/21 08:59:08;;;;;;;1.70;1.60;;;;;;;;;;7330892;19;154147;-18
2021/11/21 09:01:39;;;;;;;1.40;1.30;;;;;;;;;;7330911;19;153642;-13
2021/11/21 09:04:11;;;;;;;1.67;1.52;;;;;;;;;;7330688;19;161834;-13
2021/11/21 09:06:42;;;;;;;1.27;1.27;;;;;;;;;;7330404;19;162623;-15
2021/11/21 09:09:13;;;;;;;1.27;1.27;;;;;;;;;;7329642;19;153991;-13
2021/11/21 09:11:47;;;;;;;1.23;1.23;;;;;;;;;;7330706;19;153662;-13
2021/11/21 09:14:19;;;;;;;1.40;1.40;;;;;;;;;;7330268;19;161970;-13
2021/11/21 09:16:50;;;;;;;1.20;1.20;;;;;;;;;;7330376;19;162390;-13
2021/11/21 09:19:21;;;;;;;1.30;1.30;;;;;;;;;;7330853;19;154004;-13
2021/11/21 09:21:53;;;;;;;1.50;1.40;;;;;;;;;;7331438;19;154624;-12
2021/11/21 09:24:25;;;;;;;1.40;1.40;;;;;;;;;;7328437;19;161811;-14
2021/11/21 09:26:59;;;;;;;1.42;1.38;;;;;;;;;;7330216;19;162292;-20
2021/11/21 09:29:30;;;;;;;1.30;1.30;;;;;;;;;;7330476;19;154280;-13
2021/11/21 09:32:01;;;;;;;1.02;1.02;;;;;;;;;;7329738;19;153569;-14
2021/11/21 09:34:33;;;;;;;1.55;1.45;;;;;;;;;;7330072;19;161695;-13
2021/11/21 09:37:04;;;;;;;1.10;1.10;;;;;;;;;;7329992;19;162586;-14
2021/11/21 09:39:36;;;;;;;1.30;1.30;;;;;;;;;;7330416;19;154158;-14
2021/11/21 09:42:10;;;;;;;1.10;1.10;;;;;;;;;;7332896;19;153542;-13
2021/11/21 09:44:42;;;;;;;1.00;1.00;;;;;;;;;;7332847;19;161842;-14
2021/11/21 09:47:15;;;;;;;1.20;1.20;;;;;;;;;;7331736;19;162372;-14
2021/11/21 09:49:46;;;;;;;;;;;;;;;;;;7332498;19;155373;-12
2021/11/21 09:52:19;;;;;;;1.20;1.20;;;;;;;;;;7328137;19;153379;-13
2021/11/21 09:54:53;;;;;;;0.90;0.90;;;;;;;;;;7328478;19;134080;-14
2021/11/21 09:57:29;;;;;;;0.98;0.98;;;;;;;;;;7330119;19;162847;-12
2021/11/21 10:00:02;;;;;;;0.90;0.90;;;;;;;;;;7332536;19;153935;-13
2021/11/21 10:02:39;;;;;;;0.98;0.80;;;;;;;;;;7329574;19;153647;-13
2021/11/21 10:05:18;;;;;;;0.70;0.70;;;;;;;;;;7328878;19;161819;-12
2021/11/21 10:07:49;;;;;;;0.70;0.70;;;;;;;;;;7331235;19;162497;-15
2021/11/21 10:10:21;;;;;;;0.90;0.90;;;;;;;;;;7329572;19;153978;-12
2021/11/21 10:12:55;;;;;;;1.20;0.73;;;;;;;;;;7330021;19;153596;-12
2021/11/21 10:15:27;;;;;;;1.05;0.93;;;;;;;;;;7329215;19;161978;-12
2021/11/21 10:17:58;;;;;;;1.25;0.90;;;;;;;;;;7331833;19;162414;-11
2021/11/21 10:20:31;;;;;;;0.68;0.68;;;;;;;;;;7328199;19;154205;-13
2021/11/21 10:23:05;;;;;;;0.90;0.73;;;;;;;;;;7329868;19;153676;-14
2021/11/21 10:25:46;;;;;;;0.70;0.70;;;;;;;;;;7330407;19;161972;-13
2021/11/21 10:28:24;;;;;;;0.60;0.60;;;;;;;;;;7328564;19;162434;-13
2021/11/21 10:31:12;;;;;;;0.70;0.70;;;;;;;;;;7331837;19;154168;-12
2021/11/21 10:33:50;;;;;;;0.70;0.70;;;;;;;;;;7328092;19;153534;-12
2021/11/21 10:36:25;;;;;;;0.70;0.70;;;;;;;;;;7337445;19;161980;-12
2021/11/21 10:38:58;;;;;;;0.80;0.80;;;;;;;;;;7338757;19;162330;-14
2021/11/21 10:41:32;;;;;;;0.80;0.70;;;;;;;;;;7335626;19;154171;-15
2021/11/21 10:44:08;;;;;;;0.80;0.80;;;;;;;;;;7339349;19;153482;-12
2021/11/21 10:46:42;;;;;;;0.60;0.60;;;;;;;;;;7336044;19;162100;-12
2021/11/21 10:49:35;;;;;;;0.80;0.80;;;;;;;;;;7338068;19;162413;-12
2021/11/21 10:52:12;;;;;;;4.82;0.73;;;;;;;;;;7333905;19;154025;-12
2021/11/21 10:54:47;;;;;;;0.80;0.80;;;;;;;;;;7333401;19;153767;-12
2021/11/21 10:57:20;;;;;;;0.75;0.75;;;;;;;;;;7334733;19;161792;-12
2021/11/21 10:59:56;;;;;;;0.75;0.75;;;;;;;;;;7337591;19;162754;-14
2021/11/21 11:02:30;;;;;;;0.60;0.60;;;;;;;;;;7338874;19;153974;-13
2021/11/21 11:05:08;;;;;;;0.70;0.70;;;;;;;;;;7338655;19;153671;-13
2021/11/21 11:07:42;;;;;;;0.80;0.80;;;;;;;;;;7336714;19;161866;-12
2021/11/21 11:10:16;;;;;;;0.70;0.70;;;;;;;;;;7335907;19;162703;-13
2021/11/21 11:12:50;;;;;;;0.70;0.70;;;;;;;;;;7335815;19;154009;-13
2021/11/21 11:15:25;;;;;;;0.70;0.70;;;;;;;;;;7334028;19;153512;-13
2021/11/21 11:17:57;;;;;;;1.00;1.00;;;;;;;;;;7338841;19;161711;-13
2021/11/21 11:20:30;;;;;;;0.90;0.90;;;;;;;;;;7335131;19;162625;-12
2021/11/21 11:23:01;;;;;;;0.75;0.73;;;;;;;;;;7337087;19;154205;-13
2021/11/21 11:25:35;;;;;;;0.80;0.80;;;;;;;;;;7334109;19;153646;-12
2021/11/21 11:28:13;;;;;;;0.75;0.75;;;;;;;;;;7335095;19;161992;-12
2021/11/21 11:30:48;;;;;;;0.80;0.80;;;;;;;;;;7337125;19;162501;-14
2021/11/21 11:33:21;;;;;;;0.77;0.77;;;;;;;;;;7336718;19;154395;-14
2021/11/21 11:35:54;;;;;;;0.80;0.80;;;;;;;;;;7335130;19;153769;-14
2021/11/21 11:38:28;;;;;;;0.88;0.88;;;;;;;;;;7335122;19;161794;-14
2021/11/21 11:41:01;;;;;;;0.50;0.50;;;;;;;;;;7335446;19;162431;-15
2021/11/21 11:43:39;;;;;;;;;;;;;;;;;;7336163;19;154151;-14
2021/11/21 11:46:28;;;;;;;0.70;0.70;;;;;;;;;;7334894;19;153452;-14
2021/11/21 11:49:03;;;;;;;0.60;0.60;;;;;;;;;;7335947;19;161862;-12
2021/11/21 11:51:56;;;;;;;0.60;0.60;;;;;;;;;;7334918;19;162526;-12
2021/11/21 11:54:31;;;;;;;0.80;0.80;;;;;;;;;;7333886;19;154154;-13
2021/11/21 11:57:08;;;;;;;0.60;0.60;;;;;;;;;;7335953;19;153567;-13
2021/11/21 11:59:42;;;;;;;0.65;0.65;;;;;;;;;;7335448;19;162080;-14
2021/11/21 12:02:32;;;;;;;0.60;0.60;;;;;;;;;;7334877;19;162347;-14
2021/11/21 12:05:06;;;;;;;0.70;0.70;;;;;;;;;;7335933;19;153994;-13
2021/11/21 12:07:43;;;;;;;0.60;0.60;;;;;;;;;;7334560;19;153518;-14
2021/11/21 12:10:19;;;;;;;0.70;0.70;;;;;;;;;;7334430;19;161577;-12
2021/11/21 12:13:05;;;;;;;0.63;0.60;;;;;;;;;;7335588;19;162553;-12
2021/11/21 12:15:54;;;;;;;0.65;0.65;;;;;;;;;;7333482;19;154342;-13
2021/11/21 12:18:57;;;;;;;0.80;0.80;;;;;;;;;;7333365;19;153594;-12
2021/11/21 12:21:44;;;;;;;0.70;0.70;;;;;;;;;;7333405;19;161778;-14
2021/11/21 12:24:28;;;;;;;0.80;0.80;;;;;;;;;;7334553;19;162390;-13
2021/11/21 12:27:00;;;;;;;0.80;0.80;;;;;;;;;;7335797;19;154019;-12
2021/11/21 12:29:44;;;;;;;0.70;0.70;;;;;;;;;;7334972;19;153791;-14
2021/11/21 12:32:37;;;;;;;0.70;0.70;;;;;;;;;;7333999;19;161750;-13
2021/11/21 12:35:29;;;;;;;0.77;0.77;;;;;;;;;;7330935;19;162301;-12
2021/11/21 12:38:02;;;;;;;0.80;0.80;;;;;;;;;;7335163;19;154302;-15
2021/11/21 12:40:38;;;;;;;0.60;0.60;;;;;;;;;;7335738;19;155718;-14
2021/11/21 12:43:12;;;;;;;0.70;0.70;;;;;;;;;;7334863;19;161680;-13
2021/11/21 12:45:45;;;;;;;0.65;0.65;;;;;;;;;;7335192;19;162209;-14
2021/11/21 12:48:21;;;;;;;0.60;0.60;;;;;;;;;;7334859;19;154113;-15
2021/11/21 12:50:57;;;;;;;0.70;0.70;;;;;;;;;;7335377;19;153631;-14
2021/11/21 12:53:31;;;;;;;0.70;0.70;;;;;;;;;;7334703;19;162079;-13
2021/11/21 12:56:06;;;;;;;0.45;0.45;;;;;;;;;;7332269;19;162356;-13
2021/11/21 12:58:39;;;;;;;1.02;1.02;;;;;;;;;;7330401;19;154072;-13
2021/11/21 13:01:13;;;;;;;0.73;0.73;;;;;;;;;;7334047;19;153673;-14
2021/11/21 13:03:44;;;;;;;0.70;0.70;;;;;;;;;;7333643;19;161850;-14
2021/11/21 13:06:19;;;;;;;0.93;0.80;;;;;;;;;;7331663;19;162789;-14
2021/11/21 13:08:51;;;;;;;0.85;0.85;;;;;;;;;;7331632;19;154056;-14
2021/11/21 13:11:25;;;;;;;0.87;0.87;;;;;;;;;;7331219;19;153644;-14
2021/11/21 13:13:59;;;;;;;0.70;0.70;;;;;;;;;;7329073;19;161773;-13
2021/11/21 13:16:35;;;;;;;1.25;0.98;;;;;;;;;;7328264;19;163162;-14
2021/11/21 13:19:08;;;;;;;1.67;1.10;;;;;;;;;;7331328;19;154148;-14
2021/11/21 13:21:42;;;;;;;0.80;0.80;;;;;;;;;;7331079;19;153470;-14
2021/11/21 13:24:13;;;;;;;0.70;0.70;;;;;;;;;;7330677;19;161862;-13
2021/11/21 13:26:45;;;;;;;0.70;0.70;;;;;;;;;;7330789;19;162327;-13
2021/11/21 13:29:16;;;;;;;0.80;0.80;;;;;;;;;;7330908;19;154022;-13
2021/11/21 13:31:47;;;;;;;0.80;0.80;;;;;;;;;;7330999;19;153524;-14
2021/11/21 13:34:22;;;;;;;0.70;0.70;;;;;;;;;;7330308;19;162616;-14
2021/11/21 13:37:02;;;;;;;0.73;0.73;;;;;;;;;;7326205;19;162337;-13
2021/11/21 13:39:36;;;;;;;1.20;0.95;;;;;;;;;;7330534;19;154279;-13
2021/11/21 13:42:12;;;;;;;0.70;0.70;;;;;;;;;;7330664;19;153685;-14
2021/11/21 13:44:46;;;;;;;0.77;0.77;;;;;;;;;;7328959;19;161885;-13
2021/11/21 13:47:23;;;;;;;0.80;0.80;;;;;;;;;;7330155;19;162321;-14
2021/11/21 13:49:57;;;;;;;0.70;0.70;;;;;;;;;;7330522;19;154102;-14
2021/11/21 13:52:33;;;;;;;1.10;0.70;;;;;;;;;;7328573;19;153934;-14
2021/11/21 13:55:09;;;;;;;0.70;0.70;;;;;;;;;;7329449;19;161823;-14
2021/11/21 13:57:44;;;;;;;0.60;0.60;;;;;;;;;;7328629;19;162409;-13
2021/11/21 14:00:18;;;;;;;0.80;0.80;;;;;;;;;;7330125;19;154104;-14
2021/11/21 14:02:49;;;;;;;0.88;0.80;;;;;;;;;;7329846;19;153607;-13
2021/11/21 14:05:26;;;;;;;0.73;0.73;;;;;;;;;;7329363;19;161843;-20
2021/11/21 14:08:02;;;;;;;0.80;0.80;;;;;;;;;;7329315;19;162375;-14
2021/11/21 14:10:35;;;;;;;0.65;0.65;;;;;;;;;;7335140;19;154019;-13
2021/11/21 14:13:11;;;;;;;0.70;0.70;;;;;;;;;;7336785;19;153912;-13
2021/11/21 14:15:44;;;;;;;0.75;0.75;;;;;;;;;;7335537;19;161655;-14
2021/11/21 14:18:15;;;;;;;0.50;0.50;;;;;;;;;;7335860;19;162541;-13
2021/11/21 14:20:50;;;;;;;0.70;0.70;;;;;;;;;;7336512;19;154281;-15
2021/11/21 14:23:27;;;;;;;0.60;0.60;;;;;;;;;;7336389;19;153593;-14
2021/11/21 14:26:00;;;;;;;0.60;0.60;;;;;;;;;;7335554;19;161972;-13
2021/11/21 14:28:35;;;;;;;0.65;0.65;;;;;;;;;;7335667;19;162391;-14
2021/11/21 14:31:09;;;;;;;0.60;0.60;;;;;;;;;;7339195;19;154039;-13
2021/11/21 14:33:42;;;;;;;1.20;0.70;;;;;;;;;;7337472;19;153570;-13
2021/11/21 14:36:20;;;;;;;0.63;0.63;;;;;;;;;;7334237;19;161940;-12
2021/11/21 14:39:05;;;;;;;0.65;0.65;;;;;;;;;;7338430;19;162929;-13
2021/11/21 14:41:39;;;;;;;0.52;0.52;;;;;;;;;;7335628;19;154388;-12
2021/11/21 14:44:14;;;;;;;0.70;0.70;;;;;;;;;;7335357;19;153548;-12
2021/11/21 14:46:47;;;;;;;1.95;0.60;;;;;;;;;;7334783;19;162347;-12
2021/11/21 14:49:18;;;;;;;0.60;0.60;;;;;;;;;;7334857;19;162476;-12
2021/11/21 14:51:49;;;;;;;0.60;0.60;;;;;;;;;;7332958;19;154047;-12
2021/11/21 14:54:30;;;;;;;0.50;0.50;;;;;;;;;;7335186;19;153511;-12
2021/11/21 14:57:08;;;;;;;0.50;0.50;;;;;;;;;;7333284;19;161989;-12
2021/11/21 14:59:40;;;;;;;0.57;0.57;;;;;;;;;;7334506;19;162897;-18
2021/11/21 15:02:12;;;;;;;0.70;0.70;;;;;;;;;;7333745;19;154051;-13
2021/11/21 15:04:43;;;;;;;0.40;0.40;;;;;;;;;;7334944;19;153706;-12
2021/11/21 15:07:14;;;;;;;0.50;0.50;;;;;;;;;;7334528;19;161849;-13